createdAt,value
2019-02-10T00:02:26.478Z,4.17
2019-02-10T00:04:55.983Z,4.15
2019-02-10T00:07:25.503Z,4.90
2019-02-10T00:09:55.118Z,3.80
2019-02-10T00:12:24.684Z,3.27
2019-02-10T00:14:54.671Z,3.75
2019-02-10T00:17:24.058Z,3.62
2019-02-10T00:19:53.761Z,5.37
2019-02-10T00:22:23.367Z,4.10
2019-02-10T00:24:53.197Z,4.87
2019-02-10T00:27:23.892Z,4.47
2019-02-10T00:29:53.649Z,4.67
2019-02-10T00:32:23.144Z,3.75
2019-02-10T00:34:52.936Z,4.62
2019-02-10T00:37:22.287Z,5.78
2019-02-10T00:39:55.638Z,3.20
2019-02-10T00:42:27.163Z,3.33
2019-02-10T00:44:57.674Z,2.85
2019-02-10T00:47:28.950Z,3.15
2019-02-10T00:50:00.714Z,2.60
2019-02-10T00:52:30.229Z,2.08
2019-02-10T00:55:02.237Z,4.03
2019-02-10T00:57:33.901Z,5.05
2019-02-10T01:00:06.854Z,2.47
2019-02-10T01:02:39.453Z,3.22
2019-02-10T01:05:09.235Z,2.98
2019-02-10T01:07:41.442Z,4.08
2019-02-10T01:10:15.119Z,2.52
2019-02-10T01:12:48.406Z,1.20
2019-02-10T01:15:17.929Z,1.35
2019-02-10T01:17:47.641Z,1.47
2019-02-10T01:20:17.063Z,1.40
2019-02-10T01:22:48.560Z,1.55
2019-02-10T01:25:28.330Z,2.60
2019-02-10T01:28:04.311Z,2.90
2019-02-10T01:30:42.479Z,2.20
2019-02-10T01:33:22.617Z,2.42
2019-02-10T01:35:50.588Z,1.90
2019-02-10T01:38:21.996Z,1.98
2019-02-10T01:40:55.401Z,1.87
2019-02-10T01:43:27.482Z,1.60
2019-02-10T01:46:03.663Z,1.80
2019-02-10T01:48:33.307Z,2.47
2019-02-10T01:51:03.045Z,2.52
2019-02-10T01:53:32.545Z,1.90
2019-02-10T01:56:02.085Z,1.95
2019-02-10T01:58:33.356Z,1.95
2019-02-10T02:01:03.113Z,2.05
2019-02-10T02:03:33.381Z,2.22
2019-02-10T02:06:03.333Z,4.42
2019-02-10T02:08:32.988Z,2.25
2019-02-10T02:11:03.183Z,2.72
2019-02-10T02:13:32.982Z,2.02
2019-02-10T02:16:02.470Z,3.35
2019-02-10T02:18:31.993Z,2.87
2019-02-10T02:21:01.701Z,2.27
2019-02-10T02:23:31.275Z,3.05
2019-02-10T02:26:00.947Z,2.50
2019-02-10T02:28:30.979Z,1.60
2019-02-10T02:31:00.969Z,2.40
2019-02-10T02:33:30.851Z,3.02
2019-02-10T02:36:01.145Z,1.30
2019-02-10T02:38:30.770Z,3.08
2019-02-10T02:41:00.768Z,1.45
2019-02-10T02:43:31.189Z,1.37
2019-02-10T02:46:01.559Z,2.47
2019-02-10T02:48:33.127Z,1.10
2019-02-10T02:51:03.096Z,1.50
2019-02-10T02:53:32.569Z,1.15
2019-02-10T02:56:02.057Z,1.55
2019-02-10T02:58:31.513Z,1.37
2019-02-10T03:01:01.184Z,1.92
2019-02-10T03:03:30.585Z,0.93
2019-02-10T03:06:00.272Z,1.20
2019-02-10T03:08:29.801Z,2.50
2019-02-10T03:10:59.412Z,2.52
2019-02-10T03:13:29.377Z,1.55
2019-02-10T03:15:59.240Z,1.70
2019-02-10T03:18:29.757Z,2.45
2019-02-10T03:20:59.744Z,3.08
2019-02-10T03:23:29.294Z,2.80
2019-02-10T03:25:58.681Z,1.47
2019-02-10T03:28:29.475Z,1.30
2019-02-10T03:30:59.092Z,1.87
2019-02-10T03:33:28.876Z,2.05
2019-02-10T03:35:58.519Z,1.55
2019-02-10T03:38:28.276Z,1.22
2019-02-10T03:40:57.984Z,1.32
2019-02-10T03:43:27.937Z,1.85
2019-02-10T03:45:57.457Z,1.27
2019-02-10T03:48:27.284Z,1.00
2019-02-10T03:50:56.852Z,5.08
2019-02-10T03:53:26.860Z,1.45
2019-02-10T03:55:56.915Z,1.10
2019-02-10T03:58:28.104Z,1.55
2019-02-10T04:00:57.942Z,1.87
2019-02-10T04:03:27.329Z,2.92
2019-02-10T04:05:56.753Z,1.47
2019-02-10T04:08:26.471Z,1.42
2019-02-10T04:10:55.957Z,1.10
2019-02-10T04:13:25.522Z,1.87
2019-02-10T04:15:55.126Z,1.52
2019-02-10T04:18:24.790Z,2.33
2019-02-10T04:20:54.939Z,1.77
2019-02-10T04:23:24.939Z,2.10
2019-02-10T04:25:54.833Z,2.15
2019-02-10T04:28:24.479Z,2.50
2019-02-10T04:30:54.363Z,2.05
2019-02-10T04:33:23.841Z,1.35
2019-02-10T04:35:53.481Z,2.55
2019-02-10T04:38:23.285Z,2.33
2019-02-10T04:40:53.127Z,2.20
2019-02-10T04:43:24.547Z,1.80
2019-02-10T04:45:54.511Z,1.82
2019-02-10T04:48:23.937Z,2.25
2019-02-10T04:50:53.369Z,1.60
2019-02-10T04:53:23.213Z,1.92
2019-02-10T04:56:16.472Z,2.25
2019-02-10T04:58:46.033Z,1.70
2019-02-10T05:01:15.765Z,2.15
2019-02-10T05:03:45.614Z,1.87
2019-02-10T05:06:15.190Z,2.22
2019-02-10T05:08:45.195Z,1.70
2019-02-10T05:11:14.749Z,2.33
2019-02-10T05:13:44.339Z,2.15
2019-02-10T05:16:13.746Z,2.72
2019-02-10T05:18:43.286Z,2.10
2019-02-10T05:21:13.018Z,1.80
2019-02-10T05:23:42.431Z,2.47
2019-02-10T05:26:11.997Z,2.90
2019-02-10T05:28:43.022Z,2.22
2019-02-10T05:31:12.373Z,1.95
2019-02-10T05:33:42.380Z,1.87
2019-02-10T05:36:11.874Z,3.10
2019-02-10T05:38:41.928Z,2.92
2019-02-10T05:41:11.608Z,1.98
2019-02-10T05:43:41.397Z,2.55
2019-02-10T05:46:11.349Z,2.33
2019-02-10T05:48:41.249Z,2.42
2019-02-10T05:51:10.946Z,2.70
2019-02-10T05:53:40.677Z,2.77
2019-02-10T05:56:10.703Z,2.25
2019-02-10T05:58:40.387Z,2.58
2019-02-10T06:01:46.315Z,2.58
2019-02-10T06:04:16.013Z,2.42
2019-02-10T06:06:45.816Z,2.27
2019-02-10T06:09:15.428Z,2.37
2019-02-10T06:11:45.258Z,2.65
2019-02-10T06:14:14.733Z,2.42
2019-02-10T06:16:45.500Z,2.35
2019-02-10T06:19:15.209Z,2.00
2019-02-10T06:21:44.638Z,2.35
2019-02-10T06:24:14.165Z,3.35
2019-02-10T06:26:43.738Z,2.20
2019-02-10T06:29:13.108Z,2.30
2019-02-10T06:31:42.944Z,2.52
2019-02-10T06:34:14.112Z,2.47
2019-02-10T06:36:45.479Z,2.12
2019-02-10T06:39:15.263Z,2.77
2019-02-10T06:41:45.282Z,2.02
2019-02-10T06:44:15.412Z,4.12
2019-02-10T06:46:48.008Z,2.22
2019-02-10T06:49:18.384Z,4.30
2019-02-10T06:51:48.101Z,1.98
2019-02-10T06:54:17.855Z,2.45
2019-02-10T06:56:49.881Z,2.02
2019-02-10T06:59:37.313Z,1.85
2019-02-10T07:02:13.200Z,2.47
2019-02-10T07:04:43.253Z,3.45
2019-02-10T07:07:13.643Z,2.33
2019-02-10T07:09:43.505Z,2.95
2019-02-10T07:12:47.950Z,2.20
2019-02-10T07:15:54.268Z,2.08
2019-02-10T07:19:06.130Z,2.08
2019-02-10T07:21:39.249Z,2.10
2019-02-10T07:24:31.726Z,1.70
2019-02-10T07:27:16.817Z,1.65
2019-02-10T07:30:28.406Z,2.05
2019-02-10T07:32:58.104Z,2.50
2019-02-10T07:36:28.098Z,1.67
2019-02-10T07:39:29.296Z,1.65
2019-02-10T07:42:54.800Z,1.27
2019-02-10T07:46:02.946Z,1.47
2019-02-10T07:49:01.053Z,2.67
2019-02-10T07:52:00.436Z,1.50
2019-02-10T07:54:49.074Z,1.32
2019-02-10T07:58:01.095Z,1.95
2019-02-10T08:00:47.588Z,1.45
2019-02-10T08:04:26.267Z,1.10
2019-02-10T08:07:19.298Z,1.85
2019-02-10T08:09:57.931Z,1.42
2019-02-10T08:12:55.701Z,1.70
2019-02-10T08:15:50.275Z,1.47
2019-02-10T08:19:10.077Z,2.05
2019-02-10T08:22:24.718Z,1.87
2019-02-10T08:25:20.799Z,2.67
2019-02-10T08:28:08.195Z,3.17
2019-02-10T08:31:41.159Z,3.52
2019-02-10T08:34:22.397Z,2.52
2019-02-10T08:37:34.947Z,2.60
2019-02-10T08:40:54.481Z,1.75
2019-02-10T08:43:50.714Z,1.65
2019-02-10T08:46:51.743Z,1.90
2019-02-10T08:49:56.359Z,3.05
2019-02-10T08:52:51.786Z,2.62
2019-02-10T08:55:16.888Z,1.95
2019-02-10T08:57:49.143Z,2.20
2019-02-10T09:00:19.107Z,1.90
2019-02-10T09:02:51.112Z,5.03
2019-02-10T09:05:20.784Z,4.62
2019-02-10T09:07:50.318Z,2.72
2019-02-10T09:10:23.004Z,2.42
2019-02-10T09:12:52.994Z,2.15
2019-02-10T09:15:22.910Z,2.20
2019-02-10T09:17:53.263Z,2.27
2019-02-10T09:20:25.182Z,2.45
2019-02-10T09:22:55.001Z,2.27
2019-02-10T09:25:24.995Z,2.80
2019-02-10T09:27:55.148Z,2.20
2019-02-10T09:30:25.237Z,2.35
2019-02-10T09:32:55.011Z,3.52
2019-02-10T09:35:25.146Z,2.55
2019-02-10T09:37:56.020Z,2.62
2019-02-10T09:40:26.193Z,2.17
2019-02-10T09:42:56.430Z,2.67
2019-02-10T09:45:26.030Z,2.67
2019-02-10T09:47:56.150Z,2.20
2019-02-10T09:50:26.069Z,2.22
2019-02-10T09:52:55.804Z,2.17
2019-02-10T09:55:25.862Z,2.50
2019-02-10T09:57:55.887Z,4.70
2019-02-10T10:00:25.552Z,1.90
2019-02-10T10:02:55.747Z,1.57
2019-02-10T10:05:25.470Z,2.98
2019-02-10T10:07:55.361Z,2.05
2019-02-10T10:10:24.779Z,1.92
2019-02-10T10:12:54.265Z,3.08
2019-02-10T10:15:23.805Z,2.52
2019-02-10T10:17:59.094Z,1.92
2019-02-10T10:20:28.635Z,1.82
2019-02-10T10:22:57.996Z,2.45
2019-02-10T10:25:27.401Z,3.42
2019-02-10T10:27:56.964Z,1.70
2019-02-10T10:30:26.390Z,2.75
2019-02-10T10:32:55.870Z,2.40
2019-02-10T10:35:27.615Z,2.75
2019-02-10T10:37:58.643Z,2.20
2019-02-10T10:40:28.238Z,2.35
2019-02-10T10:42:57.899Z,1.77
2019-02-10T10:45:27.498Z,2.30
2019-02-10T10:47:57.012Z,1.90
2019-02-10T10:50:26.401Z,2.02
2019-02-10T10:52:56.070Z,1.72
2019-02-10T10:55:25.489Z,2.10
2019-02-10T10:57:55.220Z,2.05
2019-02-10T11:00:24.860Z,3.02
2019-02-10T11:02:55.250Z,2.15
2019-02-10T11:05:24.961Z,2.67
2019-02-10T11:07:54.372Z,2.70
2019-02-10T11:10:23.800Z,2.42
2019-02-10T11:12:53.602Z,3.08
2019-02-10T11:15:24.550Z,1.75
2019-02-10T11:17:54.207Z,2.55
2019-02-10T11:20:23.964Z,3.08
2019-02-10T11:22:54.153Z,2.20
2019-02-10T11:25:24.143Z,2.35
2019-02-10T11:27:53.548Z,2.20
2019-02-10T11:30:23.337Z,2.10
2019-02-10T11:32:53.278Z,2.37
2019-02-10T11:35:23.274Z,2.00
2019-02-10T11:37:52.903Z,2.00
2019-02-10T11:40:22.961Z,3.17
2019-02-10T11:42:52.479Z,1.70
2019-02-10T11:45:22.629Z,1.42
2019-02-10T11:47:53.711Z,1.85
2019-02-10T11:50:31.848Z,2.60
2019-02-10T11:53:01.836Z,1.17
2019-02-10T11:55:31.384Z,2.70
2019-02-10T11:58:01.241Z,1.37
2019-02-10T12:00:30.689Z,2.12
2019-02-10T12:03:00.179Z,3.27
2019-02-10T12:05:31.783Z,2.22
2019-02-10T12:08:01.390Z,2.47
2019-02-10T12:10:30.752Z,3.08
2019-02-10T12:13:00.260Z,2.17
2019-02-10T12:15:29.703Z,1.75
2019-02-10T12:17:59.288Z,2.60
2019-02-10T12:20:30.025Z,2.05
2019-02-10T12:22:59.562Z,1.47
2019-02-10T12:25:28.937Z,1.82
2019-02-10T12:27:58.567Z,2.45
2019-02-10T12:30:28.053Z,2.33
2019-02-10T12:32:57.908Z,1.90
2019-02-10T12:35:27.314Z,1.80
2019-02-10T12:37:56.735Z,1.80
2019-02-10T12:40:26.758Z,1.85
2019-02-10T12:42:56.296Z,2.10
2019-02-10T12:45:25.701Z,1.50
2019-02-10T12:47:55.284Z,2.77
2019-02-10T12:50:24.961Z,3.33
2019-02-10T12:52:54.304Z,2.00
2019-02-10T12:55:24.071Z,2.17
2019-02-10T12:57:53.592Z,1.45
2019-02-10T13:00:23.462Z,1.72
2019-02-10T13:02:53.174Z,2.15
2019-02-10T13:05:23.047Z,1.85
2019-02-10T13:07:52.580Z,2.02
2019-02-10T13:10:22.479Z,2.12
2019-02-10T13:12:51.974Z,2.35
2019-02-10T13:15:21.918Z,2.20
2019-02-10T13:17:51.526Z,1.52
2019-02-10T13:20:21.209Z,1.50
2019-02-10T13:22:50.582Z,2.22
2019-02-10T13:25:20.131Z,1.60
2019-02-10T13:27:49.988Z,2.47
2019-02-10T13:30:19.863Z,2.12
2019-02-10T13:32:49.541Z,1.60
2019-02-10T13:35:19.200Z,1.60
2019-02-10T13:37:48.764Z,1.70
2019-02-10T13:40:18.161Z,1.10
2019-02-10T13:42:47.942Z,3.98
2019-02-10T13:45:17.547Z,2.37
2019-02-10T13:47:47.477Z,1.22
2019-02-10T13:50:17.602Z,1.75
2019-02-10T13:52:47.115Z,1.85
2019-02-10T13:55:16.973Z,1.50
2019-02-10T13:57:46.778Z,1.65
2019-02-10T14:00:18.133Z,1.57
2019-02-10T14:02:47.841Z,1.67
2019-02-10T14:05:17.446Z,2.12
2019-02-10T14:07:47.246Z,1.95
2019-02-10T14:10:24.868Z,1.25
2019-02-10T14:12:48.555Z,1.55
2019-02-10T14:15:18.248Z,1.95
2019-02-10T14:17:48.083Z,1.35
2019-02-10T14:20:17.499Z,1.42
2019-02-10T14:22:47.182Z,2.40
2019-02-10T14:25:16.681Z,2.58
2019-02-10T14:27:46.311Z,2.30
2019-02-10T14:30:17.063Z,2.17
2019-02-10T14:32:46.924Z,1.82
2019-02-10T14:35:16.427Z,1.62
2019-02-10T14:37:46.028Z,4.03
2019-02-10T14:40:16.267Z,1.95
2019-02-10T14:42:45.947Z,1.45
2019-02-10T14:45:15.353Z,1.87
2019-02-10T14:47:45.149Z,1.55
2019-02-10T14:50:15.305Z,1.47
2019-02-10T14:52:44.862Z,2.70
2019-02-10T14:55:14.451Z,2.85
2019-02-10T14:57:44.239Z,1.62
2019-02-10T15:00:14.810Z,3.02
2019-02-10T15:02:44.389Z,2.72
2019-02-10T15:05:14.112Z,1.57
2019-02-10T15:07:43.605Z,1.20
2019-02-10T15:10:13.917Z,1.27
2019-02-10T15:12:43.318Z,1.30
2019-02-10T15:15:13.005Z,1.17
2019-02-10T15:17:43.411Z,1.80
2019-02-10T15:20:13.220Z,1.40
2019-02-10T15:22:42.694Z,2.02
2019-02-10T15:25:12.090Z,1.70
2019-02-10T15:27:41.898Z,1.55
2019-02-10T15:30:12.779Z,2.55
2019-02-10T15:32:42.159Z,4.55
2019-02-10T15:35:11.883Z,1.40
2019-02-10T15:37:41.635Z,1.98
2019-02-10T15:40:11.128Z,0.98
2019-02-10T15:42:40.732Z,1.62
2019-02-10T15:45:10.956Z,1.98
2019-02-10T15:47:40.708Z,1.60
2019-02-10T15:50:10.875Z,1.62
2019-02-10T15:52:40.271Z,1.77
2019-02-10T15:55:10.523Z,2.08
2019-02-10T15:57:40.432Z,2.72
2019-02-10T16:00:17.026Z,2.05
2019-02-10T16:02:46.600Z,2.35
2019-02-10T16:05:17.648Z,1.10
2019-02-10T16:07:47.096Z,1.57
2019-02-10T16:10:16.901Z,1.25
2019-02-10T16:12:46.392Z,1.27
2019-02-10T16:15:15.850Z,1.30
2019-02-10T16:17:45.665Z,2.00
2019-02-10T16:20:15.086Z,1.32
2019-02-10T16:22:44.870Z,2.80
2019-02-10T16:25:15.228Z,2.10
2019-02-10T16:27:44.688Z,2.22
2019-02-10T16:30:15.217Z,2.87
2019-02-10T16:32:50.050Z,2.72
2019-02-10T16:35:16.034Z,2.85
2019-02-10T16:37:45.527Z,2.58
2019-02-10T16:40:16.687Z,2.85
2019-02-10T16:42:46.387Z,0.82
2019-02-10T16:45:15.812Z,1.10
2019-02-10T16:47:45.944Z,2.55
2019-02-10T16:50:20.096Z,1.60
2019-02-10T16:52:49.697Z,1.75
2019-02-10T16:55:19.362Z,2.60
2019-02-10T16:57:50.057Z,0.53
2019-02-10T17:00:20.128Z,0.50
2019-02-10T17:02:53.316Z,0.62
2019-02-10T17:05:22.846Z,0.50
2019-02-10T17:07:52.481Z,0.50
2019-02-10T17:10:22.468Z,0.30
2019-02-10T17:12:52.714Z,1.27
2019-02-10T17:15:22.197Z,0.65
2019-02-10T17:17:52.713Z,1.00
2019-02-10T17:20:25.332Z,0.60
2019-02-10T17:22:55.172Z,0.93
2019-02-10T17:25:24.987Z,0.78
2019-02-10T17:27:54.412Z,0.30
2019-02-10T17:30:24.493Z,1.27
2019-02-10T17:33:01.082Z,0.30
2019-02-10T17:35:30.607Z,0.50
2019-02-10T17:38:00.554Z,0.93
2019-02-10T17:40:43.027Z,0.55
2019-02-10T17:43:12.796Z,0.50
2019-02-10T17:45:42.793Z,0.50
2019-02-10T17:48:12.645Z,0.50
2019-02-10T17:50:42.240Z,0.53
2019-02-10T17:53:15.414Z,0.80
2019-02-10T17:55:45.023Z,2.00
2019-02-10T17:58:14.773Z,2.45
2019-02-10T18:00:46.968Z,1.65
2019-02-10T18:03:18.352Z,1.22
2019-02-10T18:05:47.689Z,0.68
2019-02-10T18:08:17.231Z,1.05
2019-02-10T18:10:47.214Z,0.90
2019-02-10T18:13:25.950Z,0.72
2019-02-10T18:16:14.387Z,0.80
2019-02-10T18:19:18.292Z,0.62
2019-02-10T18:21:59.598Z,0.60
2019-02-10T18:24:46.788Z,0.80
2019-02-10T18:27:39.649Z,0.50
2019-02-10T18:30:27.599Z,0.70
2019-02-10T18:33:20.165Z,0.82
2019-02-10T18:36:07.376Z,1.42
2019-02-10T18:38:45.213Z,1.30
2019-02-10T18:41:22.502Z,1.32
2019-02-10T18:44:10.681Z,2.33
2019-02-10T18:47:08.588Z,1.47
2019-02-10T18:50:12.091Z,0.93
2019-02-10T18:53:12.955Z,0.60
2019-02-10T18:56:00.584Z,0.40
2019-02-10T18:58:58.300Z,0.53
2019-02-10T19:01:59.001Z,2.20
2019-02-10T19:04:42.467Z,1.35
2019-02-10T19:07:34.300Z,0.78
2019-02-10T19:10:10.925Z,0.88
2019-02-10T19:13:02.700Z,0.57
2019-02-10T19:16:06.891Z,0.70
2019-02-10T19:19:01.507Z,1.12
2019-02-10T19:21:54.151Z,0.60
2019-02-10T19:24:49.653Z,1.50
2019-02-10T19:27:44.327Z,0.60
2019-02-10T19:30:25.417Z,0.50
2019-02-10T19:33:21.749Z,0.50
2019-02-10T19:36:25.695Z,0.50
2019-02-10T19:39:17.315Z,0.53
2019-02-10T19:42:05.664Z,0.50
2019-02-10T19:44:54.770Z,0.50
2019-02-10T19:47:43.364Z,0.60
2019-02-10T19:50:32.044Z,0.60
2019-02-10T19:53:29.920Z,1.17
2019-02-10T19:56:33.481Z,0.65
2019-02-10T19:59:31.034Z,0.70
2019-02-10T20:02:20.243Z,1.62
2019-02-10T20:05:09.183Z,0.60
2019-02-10T20:07:55.026Z,3.00
2019-02-10T20:10:47.539Z,0.60
2019-02-10T20:13:39.073Z,2.83
2019-02-10T20:16:34.247Z,2.55
2019-02-10T20:19:18.409Z,0.82
2019-02-10T20:22:07.540Z,0.80
2019-02-10T20:24:55.057Z,1.05
2019-02-10T20:27:59.496Z,0.80
2019-02-10T20:30:54.230Z,1.75
2019-02-10T20:33:41.719Z,1.37
2019-02-10T20:36:40.341Z,2.17
2019-02-10T20:39:28.982Z,1.55
2019-02-10T20:42:15.659Z,1.30
2019-02-10T20:45:12.390Z,1.07
2019-02-10T20:48:08.155Z,0.88
2019-02-10T20:51:12.482Z,0.95
2019-02-10T20:54:00.030Z,0.55
2019-02-10T20:57:04.614Z,0.50
2019-02-10T20:59:42.784Z,1.80
2019-02-10T21:02:36.431Z,0.55
2019-02-10T21:05:37.368Z,0.82
2019-02-10T21:08:26.041Z,0.98
2019-02-10T21:11:13.204Z,0.95
2019-02-10T21:13:58.300Z,0.55
2019-02-10T21:16:56.385Z,0.80
2019-02-10T21:19:45.877Z,0.68
2019-02-10T21:22:32.832Z,0.50
2019-02-10T21:25:24.073Z,0.50
2019-02-10T21:28:04.497Z,0.45
2019-02-10T21:30:56.084Z,0.65
2019-02-10T21:34:00.040Z,0.40
2019-02-10T21:36:54.634Z,0.40
2019-02-10T21:39:52.215Z,0.90
2019-02-10T21:42:29.530Z,0.42
2019-02-10T21:45:18.016Z,0.60
2019-02-10T21:47:52.072Z,0.40
2019-02-10T21:50:24.156Z,0.80
2019-02-10T21:52:53.910Z,0.72
2019-02-10T21:55:23.886Z,0.40
2019-02-10T21:57:53.673Z,0.42
2019-02-10T22:00:23.337Z,1.17
2019-02-10T22:02:53.097Z,0.95
2019-02-10T22:05:22.587Z,0.93
2019-02-10T22:07:52.379Z,1.17
2019-02-10T22:10:22.127Z,0.68
2019-02-10T22:12:51.680Z,0.85
2019-02-10T22:15:21.359Z,0.40
2019-02-10T22:17:51.383Z,0.82
2019-02-10T22:20:21.263Z,0.62
2019-02-10T22:22:50.971Z,1.35
2019-02-10T22:25:20.485Z,0.80
2019-02-10T22:27:50.406Z,1.95
2019-02-10T22:30:20.230Z,1.75
2019-02-10T22:32:49.980Z,0.57
2019-02-10T22:35:19.578Z,0.70
2019-02-10T22:37:49.652Z,0.85
2019-02-10T22:40:19.540Z,0.50
2019-02-10T22:42:49.109Z,1.45
2019-02-10T22:45:18.969Z,0.90
2019-02-10T22:47:48.909Z,1.70
2019-02-10T22:50:18.346Z,1.40
2019-02-10T22:52:47.972Z,1.17
2019-02-10T22:55:19.117Z,1.22
2019-02-10T22:57:48.795Z,2.42
2019-02-10T23:00:51.709Z,1.60
2019-02-10T23:03:21.984Z,1.45
2019-02-10T23:05:51.773Z,0.88
2019-02-10T23:08:21.237Z,0.50
2019-02-10T23:11:00.979Z,0.60
2019-02-10T23:13:31.914Z,3.70
2019-02-10T23:16:02.823Z,0.72
2019-02-10T23:18:34.168Z,1.40
2019-02-10T23:21:13.845Z,1.40
2019-02-10T23:23:46.673Z,1.20
2019-02-10T23:26:18.047Z,0.80
2019-02-10T23:28:50.852Z,0.60
2019-02-10T23:31:23.765Z,0.80
2019-02-10T23:33:53.237Z,1.20
2019-02-10T23:36:24.290Z,2.55
2019-02-10T23:38:53.771Z,0.70
2019-02-10T23:41:24.565Z,0.70
2019-02-10T23:43:55.066Z,0.98
2019-02-10T23:46:24.679Z,1.35
2019-02-10T23:48:55.609Z,1.37
2019-02-10T23:51:25.266Z,1.95
2019-02-10T23:53:57.026Z,0.62
2019-02-10T23:56:26.583Z,1.17
2019-02-10T23:58:56.266Z,1.05
